Time;durP1;ratioP1;P1;durP2;ratioP2;P2;SDS_P1;SDS_P2;PMS_P1;PMS_P2;Temp;Humidity;BMP_temperature;BMP_pressure;BME280_temperature;BME280_humidity;BME280_pressure;Samples;Min_cycle;Max_cycle;Signal;HPM_P1;HPM_P2
2022/03/25 00:01:38;;;;;;;102.20;51.70;;;5.10;99.90;;;;;;5019337;28;20516;-82
2022/03/25 00:04:03;;;;;;;95.28;48.88;;;5.10;99.90;;;;;;5019332;28;20038;-82
2022/03/25 00:06:30;;;;;;;97.68;51.00;;;5.00;99.90;;;;;;5064117;28;20047;-81
2022/03/25 00:08:56;;;;;;;90.18;45.65;;;5.00;99.90;;;;;;5023184;28;20120;-82
2022/03/25 00:11:21;;;;;;;90.07;44.25;;;5.00;99.90;;;;;;5055576;28;20557;-82
2022/03/25 00:13:47;;;;;;;87.78;43.15;;;4.90;99.90;;;;;;5020917;28;20053;-82
2022/03/25 00:16:13;;;;;;;96.07;47.55;;;4.90;99.90;;;;;;5026436;28;20148;-82
2022/03/25 00:18:39;;;;;;;95.72;45.35;;;4.90;99.90;;;;;;5020694;28;20431;-82
2022/03/25 00:21:05;;;;;;;96.07;46.78;;;4.80;99.90;;;;;;5025738;28;20046;-81
2022/03/25 00:23:31;;;;;;;91.00;43.63;;;4.90;99.90;;;;;;5022743;27;20121;-81
2022/03/25 00:25:56;;;;;;;87.15;43.38;;;4.80;99.90;;;;;;5026140;28;20141;-82
2022/03/25 00:28:22;;;;;;;96.65;47.03;;;4.80;99.90;;;;;;5019259;28;20117;-82
2022/03/25 00:30:49;;;;;;;91.00;43.25;;;4.80;99.90;;;;;;5035904;28;20034;-81
2022/03/25 00:33:16;;;;;;;97.60;47.83;;;4.80;99.90;;;;;;5054589;28;20050;-82
2022/03/25 00:35:42;;;;;;;92.20;44.95;;;4.80;99.90;;;;;;5040425;28;20092;-81
2022/03/25 00:38:08;;;;;;;87.50;44.70;;;4.70;99.90;;;;;;5063379;28;20051;-81
2022/03/25 00:40:34;;;;;;;93.13;43.35;;;4.70;99.90;;;;;;5038108;28;20128;-81
2022/03/25 00:43:00;;;;;;;93.95;45.15;;;4.70;99.90;;;;;;5002793;28;20466;-81
2022/03/25 00:45:28;;;;;;;92.78;43.88;;;4.60;99.90;;;;;;5049786;28;20039;-81
2022/03/25 00:47:55;;;;;;;90.25;44.65;;;4.60;99.90;;;;;;5022850;28;20050;-81
2022/03/25 00:50:21;;;;;;;95.57;45.95;;;4.60;99.90;;;;;;5068247;28;20051;-81
2022/03/25 00:52:47;;;;;;;96.13;45.72;;;4.50;99.90;;;;;;5017449;28;20405;-81
2022/03/25 00:55:12;;;;;;;103.85;46.00;;;4.50;99.90;;;;;;5018580;28;20034;-81
2022/03/25 00:57:38;;;;;;;93.00;44.13;;;4.50;99.90;;;;;;4999130;28;20053;-81
2022/03/25 01:00:05;;;;;;;92.18;44.33;;;4.50;99.90;;;;;;5031042;28;20094;-81
2022/03/25 01:02:31;;;;;;;98.55;45.05;;;4.50;99.90;;;;;;5039703;28;20083;-81
2022/03/25 01:04:56;;;;;;;103.00;47.03;;;4.50;99.90;;;;;;5040392;28;20512;-81
2022/03/25 01:07:22;;;;;;;92.97;44.95;;;4.50;99.90;;;;;;5018769;28;20049;-81
2022/03/25 01:09:47;;;;;;;101.68;49.70;;;4.50;99.90;;;;;;5048833;28;20061;-82
2022/03/25 01:12:13;;;;;;;91.28;44.55;;;4.50;99.90;;;;;;5048192;28;20115;-81
2022/03/25 01:14:39;;;;;;;80.18;38.85;;;4.50;99.90;;;;;;5016872;28;20042;-82
2022/03/25 01:17:04;;;;;;;78.75;41.08;;;4.40;99.90;;;;;;5052290;28;20454;-81
2022/03/25 01:19:31;;;;;;;75.60;37.55;;;4.40;99.90;;;;;;5044865;28;20491;-81
2022/03/25 01:21:57;;;;;;;77.60;39.63;;;4.20;99.90;;;;;;5018030;28;20049;-81
2022/03/25 01:24:23;;;;;;;68.82;35.08;;;4.10;99.90;;;;;;5020154;28;20146;-81
2022/03/25 01:26:49;;;;;;;69.68;34.08;;;4.10;99.90;;;;;;5023561;28;20357;-82
2022/03/25 01:29:15;;;;;;;58.28;32.40;;;3.90;99.90;;;;;;5028399;28;20387;-82
2022/03/25 01:31:41;;;;;;;60.17;32.28;;;3.90;99.90;;;;;;5022219;28;20051;-81
2022/03/25 01:34:07;;;;;;;58.03;34.20;;;3.80;99.90;;;;;;5016129;28;20137;-81
2022/03/25 01:36:33;;;;;;;59.13;33.67;;;3.70;99.90;;;;;;5022056;28;20449;-81
2022/03/25 01:38:59;;;;;;;52.83;28.95;;;3.60;99.90;;;;;;5016327;28;20045;-81
2022/03/25 01:41:25;;;;;;;50.17;27.67;;;3.50;99.90;;;;;;5018518;28;20049;-82
2022/03/25 01:43:56;;;;;;;57.00;31.52;;;3.40;99.90;;;;;;5017623;28;20054;-81
2022/03/25 01:46:22;;;;;;;58.13;31.17;;;3.30;99.90;;;;;;5017420;28;20038;-81
2022/03/25 01:48:49;;;;;;;62.67;33.58;;;3.30;99.90;;;;;;5017462;28;20038;-81
2022/03/25 01:51:20;;;;;;;74.05;35.70;;;3.30;99.90;;;;;;5014747;28;20190;-81
2022/03/25 01:53:47;;;;;;;;;;;3.30;99.90;;;;;;5035938;28;20050;-81
2022/03/25 01:56:22;;;;;;;77.75;38.53;;;3.30;99.90;;;;;;5040576;28;19973;-81
2022/03/25 01:58:48;;;;;;;78.47;37.20;;;3.40;99.90;;;;;;5008862;28;20051;-81
2022/03/25 02:01:14;;;;;;;86.47;40.67;;;3.40;99.90;;;;;;5047404;28;20081;-81
2022/03/25 02:03:40;;;;;;;80.70;37.92;;;3.50;99.90;;;;;;5018553;28;20049;-81
2022/03/25 02:06:06;;;;;;;79.95;38.28;;;3.50;99.90;;;;;;5053152;28;20053;-81
2022/03/25 02:08:32;;;;;;;79.35;38.72;;;3.50;99.90;;;;;;5014336;28;20078;-82
2022/03/25 02:10:58;;;;;;;94.05;44.78;;;3.60;99.90;;;;;;5013451;28;20429;-81
2022/03/25 02:13:25;;;;;;;94.05;42.83;;;3.60;99.90;;;;;;5020911;28;20118;-82
2022/03/25 02:15:51;;;;;;;82.45;40.33;;;3.60;99.90;;;;;;5086536;28;20044;-81
2022/03/25 02:18:20;;;;;;;81.13;38.72;;;3.60;99.90;;;;;;5071961;28;20042;-81
2022/03/25 02:20:48;;;;;;;83.32;38.58;;;3.60;99.90;;;;;;5016697;28;20059;-81
2022/03/25 02:23:14;;;;;;;96.20;42.28;;;3.60;99.90;;;;;;5019838;28;20545;-81
2022/03/25 02:25:41;;;;;;;88.35;42.47;;;3.70;99.90;;;;;;5019484;28;20052;-81
2022/03/25 02:28:08;;;;;;;91.13;44.40;;;3.60;99.90;;;;;;5017047;28;20046;-81
2022/03/25 02:30:36;;;;;;;93.78;44.67;;;3.70;99.90;;;;;;5014303;28;20094;-81
2022/03/25 02:33:04;;;;;;;89.28;39.40;;;3.70;99.90;;;;;;5021838;28;20094;-81
2022/03/25 02:35:37;;;;;;;99.47;43.58;;;3.70;99.90;;;;;;5024922;28;20057;-81
2022/03/25 02:38:04;;;;;;;180.52;46.75;;;3.70;99.90;;;;;;5045507;28;20119;-82
2022/03/25 02:40:29;;;;;;;330.38;55.10;;;3.70;99.90;;;;;;5019440;28;20050;-82
2022/03/25 02:42:55;;;;;;;373.90;59.05;;;3.70;99.90;;;;;;5019144;28;20049;-82
2022/03/25 02:45:21;;;;;;;248.10;50.42;;;3.70;99.90;;;;;;5017618;28;20081;-81
2022/03/25 02:47:47;;;;;;;126.60;43.38;;;3.70;99.90;;;;;;5039691;28;20104;-81
2022/03/25 02:50:13;;;;;;;293.85;49.13;;;3.70;99.90;;;;;;5049878;28;20449;-81
2022/03/25 02:52:38;;;;;;;264.48;49.85;;;3.70;99.90;;;;;;5051012;28;20040;-82
2022/03/25 02:55:04;;;;;;;277.30;44.92;;;3.60;99.90;;;;;;5052029;28;20144;-81
2022/03/25 02:57:30;;;;;;;290.38;50.40;;;3.60;99.90;;;;;;5016439;28;20052;-81
2022/03/25 02:59:55;;;;;;;126.97;43.00;;;3.60;99.90;;;;;;5019620;28;20049;-81
2022/03/25 03:02:21;;;;;;;209.70;47.50;;;3.60;99.90;;;;;;5023035;28;20045;-82
2022/03/25 03:04:46;;;;;;;344.05;50.90;;;3.50;99.90;;;;;;5078972;28;20407;-81
2022/03/25 03:07:12;;;;;;;159.50;44.08;;;3.50;99.90;;;;;;5049371;28;20041;-82
2022/03/25 03:09:37;;;;;;;170.70;43.65;;;3.50;99.90;;;;;;5021375;28;20181;-81
2022/03/25 03:12:03;;;;;;;241.65;46.88;;;3.50;99.90;;;;;;5003459;28;20411;-82
2022/03/25 03:14:29;;;;;;;376.63;56.30;;;3.50;99.90;;;;;;5021903;28;20053;-82
2022/03/25 03:16:54;;;;;;;193.57;42.83;;;3.50;99.90;;;;;;5017932;28;20041;-82
2022/03/25 03:19:20;;;;;;;324.20;48.20;;;3.50;99.90;;;;;;5066651;28;20470;-82
2022/03/25 03:21:46;;;;;;;186.55;44.78;;;3.50;99.90;;;;;;5024021;28;20478;-82
2022/03/25 03:24:11;;;;;;;161.90;39.72;;;3.50;99.90;;;;;;5021474;28;20042;-82
2022/03/25 03:26:37;;;;;;;275.13;49.30;;;3.50;99.90;;;;;;5023347;28;20042;-82
2022/03/25 03:29:04;;;;;;;166.73;41.58;;;3.40;99.90;;;;;;5023759;28;20107;-82
2022/03/25 03:31:30;;;;;;;234.93;46.05;;;3.40;99.90;;;;;;5038221;28;20099;-82
2022/03/25 03:33:55;;;;;;;226.15;42.92;;;3.40;99.90;;;;;;5082580;28;20079;-82
2022/03/25 03:36:21;;;;;;;273.10;44.85;;;3.40;99.90;;;;;;5031933;28;20134;-81
2022/03/25 03:38:47;;;;;;;204.85;43.30;;;3.30;99.90;;;;;;5019279;28;20050;-81
2022/03/25 03:41:13;;;;;;;157.70;43.00;;;3.30;99.90;;;;;;5030474;28;20068;-81
2022/03/25 03:43:39;;;;;;;145.70;38.47;;;3.30;99.90;;;;;;5017824;28;20056;-81
2022/03/25 03:46:04;;;;;;;357.27;51.67;;;3.30;99.90;;;;;;5021696;28;20482;-81
2022/03/25 03:48:31;;;;;;;261.80;46.20;;;3.30;99.90;;;;;;5055037;28;20061;-81
2022/03/25 03:50:57;;;;;;;164.30;42.95;;;3.30;99.90;;;;;;5023467;28;20403;-81
2022/03/25 03:53:22;;;;;;;181.27;44.75;;;3.20;99.90;;;;;;5049047;28;20050;-82
2022/03/25 03:55:48;;;;;;;169.82;36.72;;;3.20;99.90;;;;;;5021137;28;20038;-81
2022/03/25 03:58:13;;;;;;;139.77;38.95;;;3.20;99.90;;;;;;5074120;28;20088;-82
2022/03/25 04:00:39;;;;;;;187.15;41.50;;;3.20;99.90;;;;;;5023719;28;20129;-80
2022/03/25 04:03:06;;;;;;;317.20;47.72;;;3.10;99.90;;;;;;5042566;28;20109;-81
2022/03/25 04:05:32;;;;;;;222.60;39.13;;;3.10;99.90;;;;;;5064702;28;20550;-82
2022/03/25 04:07:58;;;;;;;191.88;42.45;;;3.10;99.90;;;;;;5028006;28;20505;-82
2022/03/25 04:10:23;;;;;;;303.63;47.20;;;3.00;99.90;;;;;;5069956;28;20074;-82
2022/03/25 04:12:49;;;;;;;397.25;50.60;;;3.00;99.90;;;;;;5067988;28;20508;-82
2022/03/25 04:15:15;;;;;;;358.35;47.50;;;2.90;99.90;;;;;;5047623;28;20049;-81
2022/03/25 04:17:43;;;;;;;263.25;45.42;;;2.90;99.90;;;;;;5074209;28;20094;-82
2022/03/25 04:20:11;;;;;;;320.35;45.53;;;2.80;99.90;;;;;;5053168;28;20172;-82
2022/03/25 04:22:36;;;;;;;216.40;38.53;;;2.70;99.90;;;;;;5019728;28;20102;-82
2022/03/25 04:25:05;;;;;;;110.63;31.90;;;2.70;99.90;;;;;;5028644;28;20440;-82
2022/03/25 04:27:30;;;;;;;123.28;33.53;;;2.70;99.90;;;;;;5021040;28;20206;-82
2022/03/25 04:29:56;;;;;;;206.38;37.15;;;2.70;99.90;;;;;;5037381;28;20516;-82
2022/03/25 04:32:21;;;;;;;185.77;39.13;;;2.70;99.90;;;;;;5066798;28;20485;-82
2022/03/25 04:34:47;;;;;;;253.43;42.35;;;2.70;99.90;;;;;;5087256;28;20054;-82
2022/03/25 04:37:12;;;;;;;239.80;38.38;;;2.60;99.90;;;;;;5089139;28;20831;-82
2022/03/25 04:39:39;;;;;;;225.18;38.22;;;2.50;99.90;;;;;;5089831;28;20479;-82
2022/03/25 04:42:05;;;;;;;171.02;31.70;;;2.50;99.90;;;;;;5052627;28;20053;-82
2022/03/25 04:44:30;;;;;;;189.25;37.40;;;2.40;99.90;;;;;;5020937;28;20393;-81
2022/03/25 04:46:56;;;;;;;102.53;29.20;;;2.40;99.90;;;;;;5020426;28;20045;-82
2022/03/25 04:49:23;;;;;;;147.10;33.05;;;2.40;99.90;;;;;;5076842;28;20063;-82
2022/03/25 04:51:48;;;;;;;82.93;27.85;;;2.40;99.90;;;;;;5066508;28;20038;-82
2022/03/25 04:54:14;;;;;;;77.43;28.98;;;2.40;99.90;;;;;;5050536;28;20056;-82
2022/03/25 04:56:40;;;;;;;76.65;31.05;;;2.40;99.90;;;;;;5017951;28;20509;-82
2022/03/25 04:59:06;;;;;;;135.52;32.75;;;2.30;99.90;;;;;;5037167;28;21015;-82
2022/03/25 05:01:31;;;;;;;88.55;29.90;;;2.30;99.90;;;;;;5061669;28;20051;-82
2022/03/25 05:03:57;;;;;;;96.18;29.35;;;2.30;99.90;;;;;;5078255;28;20511;-82
2022/03/25 05:06:23;;;;;;;79.30;26.08;;;2.20;99.90;;;;;;5021177;28;20041;-82
2022/03/25 05:08:49;;;;;;;248.52;39.28;;;2.20;99.90;;;;;;5066561;28;20055;-82
2022/03/25 05:11:15;;;;;;;215.25;36.08;;;2.10;99.90;;;;;;5016613;28;20094;-82
2022/03/25 05:13:41;;;;;;;169.50;36.90;;;2.00;99.90;;;;;;5020725;28;20042;-82
2022/03/25 05:16:06;;;;;;;131.00;32.72;;;1.90;99.90;;;;;;5018833;28;20354;-81
2022/03/25 05:18:32;;;;;;;54.83;24.65;;;1.90;99.90;;;;;;5022187;28;20446;-82
2022/03/25 05:20:57;;;;;;;82.47;29.20;;;1.90;99.90;;;;;;5021984;28;20042;-82
2022/03/25 05:23:23;;;;;;;66.03;28.30;;;1.90;99.90;;;;;;5021033;28;20065;-82
2022/03/25 05:25:49;;;;;;;75.85;27.10;;;1.90;99.90;;;;;;5046795;28;20130;-82
2022/03/25 05:28:16;;;;;;;70.70;26.33;;;1.80;99.90;;;;;;5000613;28;20167;-82
2022/03/25 05:30:42;;;;;;;65.47;26.73;;;1.80;99.90;;;;;;5014757;28;20046;-82
2022/03/25 05:33:08;;;;;;;55.95;27.40;;;1.80;99.90;;;;;;5015982;28;20074;-82
2022/03/25 05:35:34;;;;;;;51.63;26.30;;;1.80;99.90;;;;;;5018362;28;20088;-81
2022/03/25 05:37:59;;;;;;;65.78;28.42;;;1.80;99.90;;;;;;5020467;28;20049;-81
2022/03/25 05:40:26;;;;;;;52.20;28.00;;;1.80;99.90;;;;;;5016944;28;20049;-82
2022/03/25 05:42:52;;;;;;;52.72;28.48;;;1.80;99.90;;;;;;5017387;28;20050;-82
2022/03/25 05:45:19;;;;;;;51.10;28.30;;;1.80;99.90;;;;;;5064778;28;20581;-82
2022/03/25 05:47:45;;;;;;;50.85;25.15;;;1.80;99.90;;;;;;5056200;28;20391;-81
2022/03/25 05:50:14;;;;;;;50.63;25.92;;;1.80;99.90;;;;;;5074565;28;20029;-82
2022/03/25 05:52:40;;;;;;;48.00;26.65;;;1.90;99.90;;;;;;5016859;28;20046;-83
2022/03/25 05:55:06;;;;;;;54.83;27.88;;;1.90;99.90;;;;;;5068153;28;20059;-82
2022/03/25 05:57:32;;;;;;;57.42;29.30;;;1.90;99.90;;;;;;5052650;28;20055;-82
2022/03/25 05:59:59;;;;;;;56.15;28.38;;;2.00;99.90;;;;;;5045071;28;20038;-81
2022/03/25 06:02:25;;;;;;;52.97;28.95;;;2.00;99.90;;;;;;5013753;28;20090;-81
2022/03/25 06:04:52;;;;;;;49.42;25.20;;;2.10;99.90;;;;;;5029778;28;20156;-82
2022/03/25 06:07:17;;;;;;;54.05;28.65;;;2.10;99.90;;;;;;5088144;28;20064;-81
2022/03/25 06:09:43;;;;;;;51.63;28.20;;;2.10;99.90;;;;;;5066946;28;20047;-82
2022/03/25 06:12:10;;;;;;;52.97;27.23;;;2.20;99.90;;;;;;5016797;28;20038;-82
2022/03/25 06:14:36;;;;;;;58.78;30.17;;;2.20;99.90;;;;;;5073213;28;20072;-81
2022/03/25 06:17:02;;;;;;;53.35;30.23;;;2.30;99.90;;;;;;5066441;28;20046;-81
2022/03/25 06:19:29;;;;;;;52.22;28.98;;;2.40;99.90;;;;;;5065327;28;20031;-81
2022/03/25 06:21:56;;;;;;;50.75;26.45;;;2.40;99.90;;;;;;5051544;28;20173;-81
2022/03/25 06:24:21;;;;;;;46.42;26.33;;;2.50;99.90;;;;;;5053614;28;20066;-81
2022/03/25 06:26:47;;;;;;;46.97;25.73;;;2.50;99.90;;;;;;5021528;28;20043;-82
2022/03/25 06:29:13;;;;;;;54.05;27.33;;;2.60;99.90;;;;;;5028261;28;20474;-82
2022/03/25 06:31:38;;;;;;;52.15;26.63;;;2.60;99.90;;;;;;5016502;28;20066;-83
2022/03/25 06:34:04;;;;;;;54.10;26.73;;;2.70;99.90;;;;;;5070816;28;20047;-81
2022/03/25 06:36:29;;;;;;;48.63;25.80;;;2.80;99.90;;;;;;5042660;28;20938;-85
2022/03/25 06:38:55;;;;;;;50.25;25.40;;;2.90;99.90;;;;;;5061542;28;20146;-83
2022/03/25 06:41:21;;;;;;;50.25;28.13;;;2.90;99.90;;;;;;5071908;28;20491;-83
2022/03/25 06:43:46;;;;;;;56.60;31.27;;;3.00;99.90;;;;;;5055907;28;20067;-83
2022/03/25 06:46:14;;;;;;;62.42;33.28;;;3.10;99.90;;;;;;5040508;28;20516;-83
2022/03/25 06:48:40;;;;;;;63.67;30.85;;;3.10;99.90;;;;;;5022500;28;20890;-84
2022/03/25 06:51:06;;;;;;;63.25;32.85;;;3.30;99.90;;;;;;5022482;28;20055;-83
2022/03/25 06:53:32;;;;;;;67.22;33.17;;;3.40;99.90;;;;;;5088102;28;20452;-82
2022/03/25 06:55:58;;;;;;;70.93;34.55;;;3.60;99.90;;;;;;5022214;28;20049;-83
2022/03/25 06:58:23;;;;;;;67.07;32.80;;;3.70;99.90;;;;;;5093427;28;20059;-83
2022/03/25 07:00:49;;;;;;;72.45;32.85;;;3.80;99.90;;;;;;5056520;28;20387;-83
2022/03/25 07:03:15;;;;;;;64.30;33.20;;;3.90;99.90;;;;;;5085415;28;20488;-83
2022/03/25 07:05:41;;;;;;;67.43;33.65;;;4.00;99.90;;;;;;5040577;28;20041;-83
2022/03/25 07:08:09;;;;;;;65.95;33.17;;;4.00;99.90;;;;;;5077650;28;20050;-83
2022/03/25 07:10:35;;;;;;;59.72;32.35;;;4.10;99.90;;;;;;5065190;28;20040;-83
2022/03/25 07:13:00;;;;;;;67.68;36.67;;;4.20;99.90;;;;;;5039870;28;20501;-83
2022/03/25 07:15:26;;;;;;;65.63;35.95;;;4.30;99.90;;;;;;5021210;28;20494;-83
2022/03/25 07:17:52;;;;;;;67.43;33.50;;;4.40;99.90;;;;;;5021883;28;20042;-82
2022/03/25 07:20:21;;;;;;;68.63;34.67;;;4.50;99.90;;;;;;5021432;28;20051;-83
2022/03/25 07:22:49;;;;;;;66.43;35.20;;;4.60;99.90;;;;;;5030819;28;20054;-84
2022/03/25 07:25:16;;;;;;;65.93;32.75;;;4.70;99.90;;;;;;5022021;28;20050;-82
2022/03/25 07:27:43;;;;;;;69.05;35.75;;;4.80;99.90;;;;;;5025755;28;20429;-83
2022/03/25 07:30:09;;;;;;;72.68;37.72;;;5.00;99.90;;;;;;5034312;28;20057;-83
2022/03/25 07:32:35;;;;;;;73.72;37.72;;;5.10;99.90;;;;;;5035361;28;20046;-83
2022/03/25 07:35:02;;;;;;;75.35;38.47;;;5.20;99.90;;;;;;5038390;28;20098;-83
2022/03/25 07:37:28;;;;;;;68.28;35.75;;;5.40;99.90;;;;;;5022172;28;20740;-82
2022/03/25 07:39:54;;;;;;;64.97;34.33;;;5.50;99.90;;;;;;5044081;28;20051;-83
2022/03/25 07:42:19;;;;;;;71.85;38.25;;;5.70;99.90;;;;;;5022562;28;20046;-83
2022/03/25 07:44:45;;;;;;;69.43;36.75;;;5.80;99.90;;;;;;5077539;28;20044;-83
2022/03/25 07:47:12;;;;;;;71.90;38.00;;;5.90;99.90;;;;;;5038681;28;20079;-83
2022/03/25 07:49:41;;;;;;;71.80;39.33;;;6.00;99.90;;;;;;5058414;28;20376;-83
2022/03/25 07:52:08;;;;;;;71.30;38.53;;;6.20;99.90;;;;;;5056000;28;20039;-85
2022/03/25 07:54:34;;;;;;;66.38;35.13;;;6.30;99.90;;;;;;5042991;28;20040;-82
2022/03/25 07:57:00;;;;;;;70.07;40.90;;;6.50;99.90;;;;;;5014397;28;20081;-81
2022/03/25 07:59:27;;;;;;;68.43;40.53;;;6.60;99.90;;;;;;5021075;28;20090;-82
2022/03/25 08:01:52;;;;;;;69.50;42.55;;;6.80;99.90;;;;;;5041346;28;20060;-82
2022/03/25 08:04:20;;;;;;;65.82;42.03;;;6.90;99.90;;;;;;5057343;28;20051;-81
2022/03/25 08:06:46;;;;;;;64.38;39.78;;;7.10;99.90;;;;;;5043917;28;20055;-81
2022/03/25 08:09:12;;;;;;;64.80;38.40;;;7.20;99.90;;;;;;5041498;28;20386;-81
2022/03/25 08:11:39;;;;;;;59.65;37.22;;;7.40;99.90;;;;;;5063745;28;20130;-81
2022/03/25 08:14:05;;;;;;;59.97;41.33;;;7.50;99.90;;;;;;5075493;28;20425;-81
2022/03/25 08:16:31;;;;;;;64.35;38.13;;;7.60;99.90;;;;;;5071567;28;20515;-82
2022/03/25 08:18:56;;;;;;;57.83;38.25;;;7.70;99.90;;;;;;5006040;28;21360;-83
2022/03/25 08:21:22;;;;;;;55.45;36.60;;;7.90;99.90;;;;;;5008034;28;20034;-81
2022/03/25 08:29:17;;;;;;;52.90;42.17;;;8.30;99.90;;;;;;5006526;28;20061;-82
2022/03/25 08:31:43;;;;;;;51.42;40.95;;;8.50;99.90;;;;;;5009136;28;20125;-82
2022/03/25 08:34:14;;;;;;;51.05;40.38;;;8.70;99.90;;;;;;5017596;28;20056;-82
2022/03/25 08:36:40;;;;;;;48.00;39.83;;;8.80;99.90;;;;;;5012532;28;20071;-82
2022/03/25 08:39:05;;;;;;;48.40;39.78;;;9.00;99.90;;;;;;5008188;28;20045;-82
2022/03/25 08:41:31;;;;;;;49.05;39.80;;;9.10;99.90;;;;;;5020527;28;20498;-81
2022/03/25 08:43:57;;;;;;;46.40;39.22;;;9.20;99.90;;;;;;5012974;28;20073;-82
2022/03/25 08:46:22;;;;;;;47.47;39.55;;;9.30;99.90;;;;;;5022388;28;20049;-83
2022/03/25 08:48:49;;;;;;;50.90;31.45;;;9.30;99.90;;;;;;5015057;28;20046;-83
2022/03/25 08:51:15;;;;;;;49.63;40.05;;;9.40;99.90;;;;;;5020250;28;20041;-82
2022/03/25 08:53:41;;;;;;;49.13;39.33;;;9.50;99.90;;;;;;5008040;28;20073;-84
2022/03/25 08:56:07;;;;;;;47.10;38.17;;;9.60;99.90;;;;;;5006148;28;20079;-84
2022/03/25 08:58:33;;;;;;;48.63;38.63;;;9.80;99.90;;;;;;5005529;28;20058;-83
2022/03/25 09:00:59;;;;;;;45.75;37.03;;;9.80;99.90;;;;;;5017564;28;20340;-83
2022/03/25 09:03:25;;;;;;;44.78;36.67;;;10.00;99.90;;;;;;5009686;28;20067;-82
2022/03/25 09:05:50;;;;;;;48.67;37.15;;;10.10;99.90;;;;;;5003040;28;20055;-82
2022/03/25 09:08:17;;;;;;;46.22;37.67;;;10.30;99.90;;;;;;5006211;28;20398;-83
2022/03/25 09:10:44;;;;;;;45.85;36.55;;;10.40;99.90;;;;;;5010167;28;20476;-82
2022/03/25 09:13:11;;;;;;;49.03;38.35;;;10.50;99.90;;;;;;5029069;28;20552;-85
2022/03/25 09:15:36;;;;;;;44.38;36.17;;;10.50;99.90;;;;;;5026232;28;20046;-82
2022/03/25 09:18:02;;;;;;;43.75;36.83;;;10.60;99.90;;;;;;5008426;28;20046;-82
2022/03/25 09:20:28;;;;;;;43.75;33.35;;;10.60;99.90;;;;;;5006676;28;20364;-82
2022/03/25 09:22:54;;;;;;;43.53;34.55;;;10.70;99.90;;;;;;5007078;28;20436;-82
2022/03/25 09:25:20;;;;;;;41.65;34.63;;;10.90;99.90;;;;;;5007278;28;20041;-83
2022/03/25 09:27:46;;;;;;;38.75;31.92;;;11.00;99.90;;;;;;5023614;28;20128;-83
2022/03/25 09:30:13;;;;;;;40.67;32.60;;;11.10;99.90;;;;;;5025340;28;20126;-83
2022/03/25 09:32:38;;;;;;;38.08;30.15;;;11.20;99.90;;;;;;5027059;28;20076;-83
2022/03/25 09:35:10;;;;;;;38.92;31.40;;;11.30;99.90;;;;;;5025722;28;20042;-84
2022/03/25 09:37:41;;;;;;;40.88;30.92;;;11.50;99.90;;;;;;5026495;28;20102;-83
2022/03/25 09:40:14;;;;;;;39.88;30.80;;;11.60;99.90;;;;;;5024874;28;20044;-83
2022/03/25 09:42:40;;;;;;;39.67;31.35;;;11.70;99.90;;;;;;5006690;28;20053;-83
2022/03/25 09:45:07;;;;;;;39.20;30.92;;;11.80;99.90;;;;;;5005693;28;20068;-83
2022/03/25 09:47:33;;;;;;;40.20;31.02;;;11.90;99.90;;;;;;5024210;28;20037;-84
2022/03/25 09:50:04;;;;;;;40.13;31.75;;;11.90;99.90;;;;;;5024355;28;20048;-83
2022/03/25 09:52:31;;;;;;;39.80;31.17;;;12.00;99.90;;;;;;5007106;28;20046;-83
2022/03/25 09:54:58;;;;;;;37.78;31.20;;;12.00;97.70;;;;;;5006157;28;20050;-83
2022/03/25 09:57:28;;;;;;;37.88;31.13;;;12.00;96.90;;;;;;5007199;28;20080;-82
2022/03/25 09:59:54;;;;;;;39.25;29.45;;;12.10;95.50;;;;;;5005830;28;20544;-83
2022/03/25 10:02:20;;;;;;;36.33;29.65;;;12.20;93.20;;;;;;5002518;28;20050;-84
2022/03/25 10:04:56;;;;;;;40.08;29.60;;;12.30;90.50;;;;;;4986944;28;20145;-83
2022/03/25 10:07:27;;;;;;;34.85;27.17;;;12.40;91.40;;;;;;5005013;28;20091;-83
2022/03/25 10:10:13;;;;;;;34.60;28.40;;;12.60;84.80;;;;;;5005073;28;20045;-82
2022/03/25 10:12:42;;;;;;;36.65;27.92;;;12.70;85.90;;;;;;4986585;28;20137;-83
2022/03/25 10:15:18;;;;;;;37.75;27.70;;;12.80;81.70;;;;;;4986957;28;20054;-83
2022/03/25 10:17:48;;;;;;;33.65;27.30;;;12.90;75.30;;;;;;4986594;28;20167;-83
2022/03/25 10:20:14;;;;;;;33.17;26.47;;;13.00;75.70;;;;;;4989163;28;20053;-83
2022/03/25 10:23:01;;;;;;;30.98;24.45;;;13.10;74.90;;;;;;5004882;28;20069;-83
2022/03/25 10:25:59;;;;;;;32.70;25.83;;;13.20;76.20;;;;;;5007349;28;20073;-83
2022/03/25 10:28:44;;;;;;;29.52;23.52;;;13.30;78.20;;;;;;5038185;28;20068;-83
2022/03/25 10:31:16;;;;;;;31.63;24.13;;;13.40;74.20;;;;;;4989305;28;20393;-83
2022/03/25 10:33:57;;;;;;;31.45;24.48;;;13.50;72.60;;;;;;5004790;28;20092;-84
2022/03/25 10:36:25;;;;;;;33.10;24.92;;;13.60;70.90;;;;;;5008057;28;20099;-82
2022/03/25 10:38:58;;;;;;;33.72;24.13;;;13.70;71.00;;;;;;5006182;28;20050;-83
2022/03/25 10:41:50;;;;;;;30.58;23.70;;;13.70;71.90;;;;;;5005665;28;20056;-82
2022/03/25 10:44:15;;;;;;;31.48;24.13;;;13.90;69.10;;;;;;5004955;28;20528;-83
2022/03/25 10:46:53;;;;;;;31.58;24.00;;;14.00;69.50;;;;;;5021966;28;20041;-82
2022/03/25 10:49:20;;;;;;;29.27;23.25;;;14.10;67.50;;;;;;5025161;28;20137;-83
2022/03/25 10:51:57;;;;;;;33.08;24.80;;;14.10;67.30;;;;;;5024443;28;20045;-83
2022/03/25 10:54:28;;;;;;;32.10;23.77;;;14.20;65.10;;;;;;5025747;28;20046;-82
2022/03/25 10:56:56;;;;;;;33.17;24.92;;;14.30;68.40;;;;;;4988088;28;20451;-83
2022/03/25 10:59:32;;;;;;;31.58;24.00;;;14.30;67.50;;;;;;5026040;28;20411;-83
2022/03/25 11:02:07;;;;;;;32.78;23.70;;;14.40;66.90;;;;;;5024027;28;20546;-82
2022/03/25 11:04:34;;;;;;;33.55;23.95;;;14.50;65.00;;;;;;5024241;28;20045;-82
2022/03/25 11:07:03;;;;;;;34.75;23.95;;;14.60;65.90;;;;;;5024995;28;20363;-83
2022/03/25 11:09:29;;;;;;;31.25;24.30;;;14.70;64.70;;;;;;5026240;28;20056;-83
2022/03/25 11:11:57;;;;;;;32.33;23.92;;;14.70;64.60;;;;;;5025200;28;20045;-83
2022/03/25 11:14:23;;;;;;;30.13;23.50;;;14.80;64.90;;;;;;5025824;28;20046;-83
2022/03/25 11:16:53;;;;;;;30.95;23.83;;;14.90;65.00;;;;;;5006379;28;20133;-83
2022/03/25 11:19:20;;;;;;;35.00;24.85;;;14.90;63.80;;;;;;5007536;28;20042;-82
2022/03/25 11:21:48;;;;;;;31.13;23.80;;;15.00;63.00;;;;;;4989870;28;20056;-83
2022/03/25 11:24:32;;;;;;;32.80;23.15;;;15.00;62.60;;;;;;5008272;28;20062;-83
2022/03/25 11:27:06;;;;;;;31.00;23.33;;;15.00;62.70;;;;;;5016110;28;20132;-82
2022/03/25 11:29:33;;;;;;;34.75;24.17;;;15.10;63.70;;;;;;5010630;28;20155;-86
2022/03/25 11:32:08;;;;;;;34.33;23.88;;;15.20;63.90;;;;;;5008826;28;20058;-83
2022/03/25 11:34:46;;;;;;;30.60;23.35;;;15.20;62.20;;;;;;4991073;28;20069;-82
2022/03/25 11:37:24;;;;;;;32.33;23.35;;;15.30;62.20;;;;;;5011926;28;20050;-83
2022/03/25 11:40:12;;;;;;;31.40;22.95;;;15.40;61.70;;;;;;5008358;28;20068;-83
2022/03/25 11:42:40;;;;;;;29.30;22.75;;;15.40;59.80;;;;;;5007270;28;20061;-83
2022/03/25 11:45:21;;;;;;;33.47;24.05;;;15.50;62.90;;;;;;5009250;28;20061;-83
2022/03/25 11:47:59;;;;;;;27.45;21.23;;;15.50;60.40;;;;;;5006520;28;20099;-84
2022/03/25 11:50:34;;;;;;;33.20;22.67;;;15.60;61.40;;;;;;5007336;28;20457;-83
2022/03/25 11:53:23;;;;;;;31.45;23.42;;;15.70;60.50;;;;;;5008256;28;20041;-83
2022/03/25 11:56:06;;;;;;;28.65;21.42;;;15.70;60.80;;;;;;5013866;28;20060;-84
2022/03/25 11:58:55;;;;;;;30.58;21.83;;;15.90;60.10;;;;;;5006828;28;20050;-83
2022/03/25 12:01:22;;;;;;;32.28;23.50;;;15.90;59.10;;;;;;5007450;28;20441;-82
2022/03/25 12:03:58;;;;;;;32.35;21.90;;;15.90;59.60;;;;;;4990824;28;20053;-82
2022/03/25 12:06:26;;;;;;;30.92;21.20;;;16.00;58.40;;;;;;5008392;28;20121;-83
2022/03/25 12:09:19;;;;;;;29.80;21.67;;;16.00;58.20;;;;;;5007005;28;20058;-82
2022/03/25 12:11:56;;;;;;;31.58;22.38;;;16.10;57.10;;;;;;5007905;28;20081;-83
2022/03/25 12:14:32;;;;;;;31.63;21.40;;;16.20;59.10;;;;;;5009287;28;20045;-83
2022/03/25 12:17:02;;;;;;;33.63;22.40;;;16.20;58.30;;;;;;5008039;28;20038;-84
2022/03/25 12:19:30;;;;;;;30.13;21.25;;;16.30;58.40;;;;;;5005697;28;20081;-83
2022/03/25 12:22:02;;;;;;;32.05;22.73;;;16.40;58.60;;;;;;5008045;28;20050;-82
2022/03/25 12:24:33;;;;;;;27.92;19.83;;;16.50;58.40;;;;;;5012930;28;20041;-85
2022/03/25 12:27:06;;;;;;;28.08;20.25;;;16.60;58.60;;;;;;5007392;28;20406;-83
2022/03/25 12:29:33;;;;;;;28.77;22.08;;;16.60;57.40;;;;;;5006557;28;20059;-83
2022/03/25 12:32:02;;;;;;;33.05;23.00;;;16.60;57.00;;;;;;5005802;28;20053;-83
2022/03/25 12:34:49;;;;;;;28.17;21.42;;;16.60;57.30;;;;;;5008354;28;20056;-83
2022/03/25 12:37:28;;;;;;;29.30;20.95;;;16.60;56.90;;;;;;5006973;28;20414;-83
2022/03/25 12:39:53;;;;;;;29.95;20.48;;;16.70;55.50;;;;;;5007323;28;20053;-84
2022/03/25 12:42:19;;;;;;;29.95;20.55;;;16.70;56.60;;;;;;5004544;28;20038;-85